Time,TemperatureF,DewpointF,PressureIn,WindDirection,WindDirectionDegrees,WindSpeedMPH,WindSpeedGustMPH,Humidity,HourlyPrecipIn,Conditions,Clouds,dailyrainin,SolarRadiationWatts/m^2,SoftwareType,DateUTC
2013-05-11 00:00:00,64.4,55.9,30.06,SSE,152,5.0,5.0,74,0.00,,,0.00,0,Wunderground v.1.15,2013-05-11 07:00:00,
2013-05-11 00:05:00,63.3,55.6,30.07,SE,144,2.0,5.0,76,0.00,,,0.00,0,Wunderground v.1.15,2013-05-11 07:05:00,
2013-05-11 00:10:00,62.7,55.7,30.07,SE,142,3.0,4.0,78,0.00,,,0.00,0,Wunderground v.1.15,2013-05-11 07:10:00,
2013-05-11 00:20:00,61.8,55.2,30.07,SE,130,1.0,4.0,79,0.00,,,0.00,0,Wunderground v.1.15,2013-05-11 07:20:00,
2013-05-11 00:30:00,61.2,54.6,30.07,SSE,148,0.0,4.0,79,0.00,,,0.00,0,Wunderground v.1.15,2013-05-11 07:30:00,
2013-05-11 00:40:00,60.8,54.6,30.07,SSE,148,1.0,4.0,80,0.00,,,0.00,0,Wunderground v.1.15,2013-05-11 07:40:00,
2013-05-11 00:50:00,59.3,54.1,30.08,SSE,148,2.0,4.0,83,0.00,,,0.00,0,Wunderground v.1.15,2013-05-11 07:50:00,
2013-05-11 01:00:00,58.6,53.1,30.08,South,180,2.0,4.0,82,0.00,,,0.00,0,Wunderground v.1.15,2013-05-11 08:00:00,
2013-05-11 01:10:00,58.4,52.9,30.08,South,180,0.0,4.0,82,0.00,,,0.00,0,Wunderground v.1.15,2013-05-11 08:10:00,
2013-05-11 01:20:00,57.5,53.0,30.08,South,180,0.0,4.0,85,0.00,,,0.00,0,Wunderground v.1.15,2013-05-11 08:20:00,
2013-05-11 01:30:00,56.3,52.5,30.08,South,180,0.0,4.0,87,0.00,,,0.00,0,Wunderground v.1.15,2013-05-11 08:30:00,
2013-05-11 01:40:00,55.2,52.3,30.08,South,180,0.0,4.0,90,0.00,,,0.00,0,Wunderground v.1.15,2013-05-11 08:40:00,
2013-05-11 01:50:00,55.3,52.1,30.08,SW,217,5.0,5.0,89,0.00,,,0.00,0,Wunderground v.1.15,2013-05-11 08:50:00,
2013-05-11 02:00:00,54.3,51.4,30.08,SW,219,1.0,4.0,90,0.00,,,0.00,0,Wunderground v.1.15,2013-05-11 09:00:00,
2013-05-11 02:05:00,54.1,51.5,30.08,SW,219,0.0,4.0,91,0.00,,,0.00,0,Wunderground v.1.15,2013-05-11 09:05:00,
2013-05-11 02:10:00,54.3,51.7,30.07,SW,219,0.0,4.0,91,0.00,,,0.00,0,Wunderground v.1.15,2013-05-11 09:10:00,
2013-05-11 02:20:00,54.1,51.2,30.07,SW,219,0.0,4.0,90,0.00,,,0.00,0,Wunderground v.1.15,2013-05-11 09:20:00,
2013-05-11 02:30:00,53.9,50.7,30.07,SW,219,2.0,4.0,89,0.00,,,0.00,0,Wunderground v.1.15,2013-05-11 09:30:00,
2013-05-11 02:40:00,53.3,50.4,30.07,SW,219,2.0,4.0,90,0.00,,,0.00,0,Wunderground v.1.15,2013-05-11 09:40:00,
2013-05-11 02:50:00,52.7,50.7,30.07,SW,219,0.0,4.0,93,0.00,,,0.00,0,Wunderground v.1.15,2013-05-11 09:50:00,
2013-05-11 03:00:00,52.8,51.1,30.06,SW,219,0.0,4.0,94,0.00,,,0.00,0,Wunderground v.1.15,2013-05-11 10:00:00,
2013-05-11 03:10:00,52.4,50.7,30.06,SW,219,0.0,4.0,94,0.00,,,0.00,0,Wunderground v.1.15,2013-05-11 10:10:00,
2013-05-11 03:20:00,52.3,50.3,30.06,SW,219,0.0,4.0,93,0.00,,,0.00,0,Wunderground v.1.15,2013-05-11 10:20:00,
2013-05-11 03:30:00,52.2,50.2,30.06,SW,219,0.0,4.0,93,0.00,,,0.00,0,Wunderground v.1.15,2013-05-11 10:30:00,
2013-05-11 03:40:00,51.8,50.1,30.05,SW,219,0.0,4.0,94,0.00,,,0.00,0,Wunderground v.1.15,2013-05-11 10:40:00,
2013-05-11 03:50:00,51.0,49.3,30.05,SW,219,0.0,4.0,94,0.00,,,0.00,0,Wunderground v.1.15,2013-05-11 10:50:00,
2013-05-11 04:00:00,50.8,49.4,30.05,SW,219,0.0,4.0,95,0.00,,,0.00,0,Wunderground v.1.15,2013-05-11 11:00:00,
2013-05-11 04:05:00,50.6,49.2,30.05,SW,219,0.0,4.0,95,0.00,,,0.00,0,Wunderground v.1.15,2013-05-11 11:05:00,
2013-05-11 04:10:00,50.5,49.4,30.05,SW,219,0.0,4.0,96,0.00,,,0.00,0,Wunderground v.1.15,2013-05-11 11:10:00,
2013-05-11 04:20:00,50.0,48.9,30.05,SW,221,4.0,4.0,96,0.00,,,0.00,0,Wunderground v.1.15,2013-05-11 11:20:00,
2013-05-11 04:30:00,48.8,48.0,30.05,SW,222,3.0,4.0,97,0.00,,,0.00,0,Wunderground v.1.15,2013-05-11 11:30:00,
2013-05-11 04:40:00,48.6,48.1,30.05,SW,222,0.0,4.0,98,0.00,,,0.00,0,Wunderground v.1.15,2013-05-11 11:40:00,
2013-05-11 04:50:00,48.9,48.1,30.05,SW,222,0.0,4.0,97,0.00,,,0.00,0,Wunderground v.1.15,2013-05-11 11:50:00,
2013-05-11 05:00:00,48.0,47.5,30.05,WSW,253,1.0,4.0,98,0.00,,,0.00,0,Wunderground v.1.15,2013-05-11 12:00:00,
2013-05-11 05:05:00,47.7,47.2,30.05,WSW,253,0.0,4.0,98,0.00,,,0.00,0,Wunderground v.1.15,2013-05-11 12:05:00,
2013-05-11 05:10:00,47.6,47.3,30.05,WSW,253,0.0,4.0,99,0.00,,,0.00,0,Wunderground v.1.15,2013-05-11 12:10:00,
2013-05-11 05:20:00,47.7,47.4,30.04,WSW,253,0.0,4.0,99,0.00,,,0.00,0,Wunderground v.1.15,2013-05-11 12:20:00,
2013-05-11 05:30:00,47.7,47.2,30.04,WSW,253,0.0,4.0,98,0.00,,,0.00,0,Wunderground v.1.15,2013-05-11 12:30:00,
2013-05-11 05:40:00,46.7,46.7,30.04,WSW,253,0.0,4.0,100,0.00,,,0.00,0,Wunderground v.1.15,2013-05-11 12:40:00,
2013-05-11 05:50:00,46.1,46.1,30.04,WSW,253,0.0,4.0,100,0.00,,,0.00,0,Wunderground v.1.15,2013-05-11 12:50:00,
2013-05-11 06:00:00,46.0,46.0,30.04,WSW,253,0.0,4.0,100,0.00,,,0.00,0,Wunderground v.1.15,2013-05-11 13:00:00,
2013-05-11 06:05:00,45.8,45.8,30.04,WSW,253,0.0,4.0,100,0.00,,,0.00,0,Wunderground v.1.15,2013-05-11 13:05:00,
2013-05-11 06:10:00,46.0,46.0,30.04,WSW,253,0.0,4.0,100,0.00,,,0.00,0,Wunderground v.1.15,2013-05-11 13:10:00,
2013-05-11 06:20:00,46.3,46.3,30.04,WSW,253,0.0,4.0,100,0.00,,,0.00,0,Wunderground v.1.15,2013-05-11 13:20:00,
2013-05-11 06:30:00,46.5,46.5,30.04,WSW,253,0.0,4.0,100,0.00,,,0.00,0,Wunderground v.1.15,2013-05-11 13:30:00,
2013-05-11 06:40:00,47.1,47.1,30.04,WSW,253,0.0,4.0,100,0.00,,,0.00,0,Wunderground v.1.15,2013-05-11 13:40:00,
2013-05-11 06:50:00,47.9,47.9,30.04,WSW,253,0.0,4.0,100,0.00,,,0.00,0,Wunderground v.1.15,2013-05-11 13:50:00,
2013-05-11 07:00:00,48.5,48.2,30.04,WSW,253,0.0,4.0,99,0.00,,,0.00,0,Wunderground v.1.15,2013-05-11 14:00:00,
2013-05-11 07:10:00,49.0,48.5,30.04,WSW,253,0.0,4.0,98,0.00,,,0.00,0,Wunderground v.1.15,2013-05-11 14:10:00,
2013-05-11 07:20:00,49.3,48.5,30.04,WSW,253,0.0,4.0,97,0.00,,,0.00,0,Wunderground v.1.15,2013-05-11 14:20:00,
2013-05-11 07:30:00,50.4,49.6,30.05,WSW,253,0.0,4.0,97,0.00,,,0.00,0,Wunderground v.1.15,2013-05-11 14:30:00,
2013-05-11 07:40:00,52.8,50.8,30.04,WSW,253,0.0,4.0,93,0.00,,,0.00,0,Wunderground v.1.15,2013-05-11 14:40:00,
2013-05-11 07:50:00,55.3,51.5,30.04,WSW,253,0.0,4.0,87,0.00,,,0.00,0,Wunderground v.1.15,2013-05-11 14:50:00,
2013-05-11 08:00:00,57.9,53.1,30.04,WSW,253,0.0,4.0,84,0.00,,,0.00,0,Wunderground v.1.15,2013-05-11 15:00:00,
2013-05-11 08:10:00,60.2,54.0,30.04,WSW,253,0.0,4.0,80,0.00,,,0.00,0,Wunderground v.1.15,2013-05-11 15:10:00,
2013-05-11 08:20:00,61.9,54.6,30.03,WSW,253,0.0,4.0,77,0.00,,,0.00,0,Wunderground v.1.15,2013-05-11 15:20:00,
2013-05-11 08:30:00,63.4,55.3,30.03,WSW,253,0.0,4.0,75,0.00,,,0.00,0,Wunderground v.1.15,2013-05-11 15:30:00,
2013-05-11 08:40:00,65.7,56.0,30.03,WSW,253,0.0,4.0,71,0.00,,,0.00,0,Wunderground v.1.15,2013-05-11 15:40:00,
2013-05-11 08:50:00,66.9,56.4,30.02,North,0,0.0,4.0,69,0.00,,,0.00,0,Wunderground v.1.15,2013-05-11 15:50:00,
2013-05-11 09:00:00,67.7,55.5,30.03,ENE,68,0.0,4.0,65,0.00,,,0.00,0,Wunderground v.1.15,2013-05-11 16:00:00,
2013-05-11 09:05:00,68.3,56.5,30.03,NNE,17,0.0,4.0,66,0.00,,,0.00,0,Wunderground v.1.15,2013-05-11 16:05:00,
2013-05-11 09:10:00,68.0,55.8,30.03,NNE,16,0.0,4.0,65,0.00,,,0.00,0,Wunderground v.1.15,2013-05-11 16:10:00,
2013-05-11 09:20:00,69.0,56.3,30.02,NNE,18,0.0,4.0,64,0.00,,,0.00,0,Wunderground v.1.15,2013-05-11 16:20:00,
2013-05-11 09:30:00,69.8,56.2,30.02,North,8,0.0,4.0,62,0.00,,,0.00,0,Wunderground v.1.15,2013-05-11 16:30:00,
2013-05-11 09:40:00,70.2,55.7,30.02,North,0,0.0,4.0,60,0.00,,,0.00,0,Wunderground v.1.15,2013-05-11 16:40:00,
2013-05-11 09:50:00,71.0,55.9,30.02,NNE,23,0.0,4.0,59,0.00,,,0.00,0,Wunderground v.1.15,2013-05-11 16:50:00,
2013-05-11 10:00:00,71.6,56.0,30.02,ENE,67,4.0,4.0,58,0.00,,,0.00,0,Wunderground v.1.15,2013-05-11 17:00:00,
2013-05-11 10:05:00,73.0,56.4,30.01,NE,50,0.0,4.0,56,0.00,,,0.00,0,Wunderground v.1.15,2013-05-11 17:05:00,
2013-05-11 10:15:00,72.8,56.7,30.01,North,0,3.0,4.0,57,0.00,,,0.00,0,Wunderground v.1.15,2013-05-11 17:15:00,
2013-05-11 10:20:00,72.9,56.3,30.01,East,95,3.0,4.0,56,0.00,,,0.00,0,Wunderground v.1.15,2013-05-11 17:20:00,
2013-05-11 10:30:00,73.8,56.6,30.01,ENE,66,0.0,4.0,55,0.00,,,0.00,0,Wunderground v.1.15,2013-05-11 17:30:00,
2013-05-11 10:40:00,74.3,57.1,30.01,ESE,115,3.0,4.0,55,0.00,,,0.00,0,Wunderground v.1.15,2013-05-11 17:40:00,
2013-05-11 10:50:00,74.0,56.8,30.01,ENE,65,3.0,4.0,55,0.00,,,0.00,0,Wunderground v.1.15,2013-05-11 17:50:00,
2013-05-11 11:00:00,74.2,56.5,30.01,ENE,61,0.0,4.0,54,0.00,,,0.00,0,Wunderground v.1.15,2013-05-11 18:00:00,
2013-05-11 11:10:00,74.5,57.3,30.00,South,191,4.0,4.0,55,0.00,,,0.00,0,Wunderground v.1.15,2013-05-11 18:10:00,
2013-05-11 11:20:00,74.6,56.9,30.00,WSW,240,4.0,4.0,54,0.00,,,0.00,0,Wunderground v.1.15,2013-05-11 18:20:00,
2013-05-11 11:30:00,75.1,57.3,30.00,WNW,293,0.0,4.0,54,0.00,,,0.00,0,Wunderground v.1.15,2013-05-11 18:30:00,
2013-05-11 11:40:00,76.7,58.3,29.99,NNW,330,0.0,4.0,53,0.00,,,0.00,0,Wunderground v.1.15,2013-05-11 18:40:00,
2013-05-11 11:50:00,78.2,58.6,29.99,SW,231,2.0,4.0,51,0.00,,,0.00,0,Wunderground v.1.15,2013-05-11 18:50:00,
2013-05-11 12:00:00,78.5,58.3,29.99,North,0,3.0,4.0,50,0.00,,,0.00,0,Wunderground v.1.15,2013-05-11 19:00:00,
2013-05-11 12:05:00,78.5,58.3,29.99,NNE,23,2.0,4.0,50,0.00,,,0.00,0,Wunderground v.1.15,2013-05-11 19:05:00,
2013-05-11 12:10:00,78.9,59.2,29.99,North,0,2.0,4.0,51,0.00,,,0.00,0,Wunderground v.1.15,2013-05-11 19:10:00,
2013-05-11 12:20:00,79.2,57.8,29.98,NNE,25,5.0,5.0,48,0.00,,,0.00,0,Wunderground v.1.15,2013-05-11 19:20:00,
2013-05-11 12:30:00,80.7,58.0,29.98,NNE,30,2.0,4.0,46,0.00,,,0.00,0,Wunderground v.1.15,2013-05-11 19:30:00,
2013-05-11 12:40:00,81.2,57.2,29.97,North,0,0.0,4.0,44,0.00,,,0.00,0,Wunderground v.1.15,2013-05-11 19:40:00,
2013-05-11 12:50:00,82.5,56.4,29.97,ENE,71,3.0,4.0,41,0.00,,,0.00,0,Wunderground v.1.15,2013-05-11 19:50:00,
2013-05-11 13:00:00,83.7,56.8,29.97,ESE,105,2.0,4.0,40,0.00,,,0.00,0,Wunderground v.1.15,2013-05-11 20:00:00,
2013-05-11 13:10:00,83.0,56.9,29.97,South,185,9.0,9.0,41,0.00,,,0.00,0,Wunderground v.1.15,2013-05-11 20:10:00,
2013-05-11 13:20:00,82.4,56.3,29.97,SW,232,5.0,5.0,41,0.00,,,0.00,0,Wunderground v.1.15,2013-05-11 20:20:00,
2013-05-11 13:30:00,84.1,57.2,29.97,SW,227,5.0,5.0,40,0.00,,,0.00,0,Wunderground v.1.15,2013-05-11 20:30:00,
2013-05-11 13:40:00,84.4,53.0,29.97,SW,228,9.0,9.0,34,0.00,,,0.00,0,Wunderground v.1.15,2013-05-11 20:40:00,
2013-05-11 13:50:00,84.4,53.0,29.97,SW,223,13.0,13.0,34,0.00,,,0.00,0,Wunderground v.1.15,2013-05-11 20:50:00,
2013-05-11 14:00:00,84.1,53.5,29.97,SW,219,8.0,8.0,35,0.00,,,0.00,0,Wunderground v.1.15,2013-05-11 21:00:00,
2013-05-11 14:11:00,83.8,53.2,29.97,WSW,256,6.0,6.0,35,0.00,,,0.00,0,Wunderground v.1.15,2013-05-11 21:11:00,
2013-05-11 14:20:00,84.3,55.2,29.96,WSW,246,4.0,6.0,37,0.00,,,0.00,0,Wunderground v.1.15,2013-05-11 21:20:00,
2013-05-11 14:30:00,84.2,54.4,29.96,SW,233,8.0,8.0,36,0.00,,,0.00,0,Wunderground v.1.15,2013-05-11 21:30:00,
2013-05-11 14:40:00,84.0,54.9,29.96,SSW,204,4.0,11.0,37,0.00,,,0.00,0,Wunderground v.1.15,2013-05-11 21:40:00,
2013-05-11 14:50:00,83.8,56.9,29.95,WSW,254,9.0,9.0,40,0.00,,,0.00,0,Wunderground v.1.15,2013-05-11 21:50:00,
2013-05-11 15:00:00,83.6,56.7,29.95,SW,235,12.0,12.0,40,0.00,,,0.00,0,Wunderground v.1.15,2013-05-11 22:00:00,
2013-05-11 15:10:00,83.4,55.8,29.95,West,279,6.0,6.0,39,0.00,,,0.00,0,Wunderground v.1.15,2013-05-11 22:10:00,
2013-05-11 15:20:00,83.3,55.0,29.95,West,262,12.0,12.0,38,0.00,,,0.00,0,Wunderground v.1.15,2013-05-11 22:20:00,
2013-05-11 15:30:00,83.4,55.8,29.94,WSW,255,5.0,5.0,39,0.00,,,0.00,0,Wunderground v.1.15,2013-05-11 22:30:00,
2013-05-11 15:40:00,83.6,56.0,29.94,WSW,257,7.0,7.0,39,0.00,,,0.00,0,Wunderground v.1.15,2013-05-11 22:40:00,
2013-05-11 15:50:00,83.6,55.3,29.94,WNW,293,4.0,4.0,38,0.00,,,0.00,0,Wunderground v.1.15,2013-05-11 22:50:00,
2013-05-11 16:00:00,84.0,56.4,29.94,SW,236,4.0,4.0,39,0.00,,,0.00,0,Wunderground v.1.15,2013-05-11 23:00:00,
2013-05-11 16:05:00,83.6,56.0,29.94,SW,226,11.0,11.0,39,0.00,,,0.00,0,Wunderground v.1.15,2013-05-11 23:05:00,
2013-05-11 16:10:00,83.5,56.6,29.94,SW,234,7.0,7.0,40,0.00,,,0.00,0,Wunderground v.1.15,2013-05-11 23:10:00,
2013-05-11 16:20:00,83.1,57.6,29.93,SW,232,11.0,11.0,42,0.00,,,0.00,0,Wunderground v.1.15,2013-05-11 23:20:00,
2013-05-11 16:30:00,82.8,58.0,29.94,SW,232,7.0,7.0,43,0.00,,,0.00,0,Wunderground v.1.15,2013-05-11 23:30:00,
2013-05-11 16:40:00,82.7,57.9,29.93,WSW,256,8.0,8.0,43,0.00,,,0.00,0,Wunderground v.1.15,2013-05-11 23:40:00,
2013-05-11 16:50:00,81.4,58.0,29.93,WSW,250,7.0,7.0,45,0.00,,,0.00,0,Wunderground v.1.15,2013-05-11 23:50:00,
2013-05-11 17:00:00,81.1,57.7,29.93,WSW,254,12.0,12.0,45,0.00,,,0.00,0,Wunderground v.1.15,2013-05-12 00:00:00,
2013-05-11 17:05:00,81.3,57.9,29.93,WNW,287,6.0,12.0,45,0.00,,,0.00,0,Wunderground v.1.15,2013-05-12 00:05:00,
2013-05-11 17:10:00,81.5,58.1,29.93,WSW,253,8.0,8.0,45,0.00,,,0.00,0,Wunderground v.1.15,2013-05-12 00:10:00,
2013-05-11 17:20:00,80.7,59.8,29.93,WSW,255,9.0,9.0,49,0.00,,,0.00,0,Wunderground v.1.15,2013-05-12 00:20:00,
2013-05-11 17:30:00,79.8,60.1,29.94,WSW,241,14.0,14.0,51,0.00,,,0.00,0,Wunderground v.1.15,2013-05-12 00:30:00,
2013-05-11 17:40:00,79.0,60.4,29.94,SW,236,13.0,13.0,53,0.00,,,0.00,0,Wunderground v.1.15,2013-05-12 00:40:00,
2013-05-11 17:50:00,78.7,60.7,29.94,WSW,239,11.0,11.0,54,0.00,,,0.00,0,Wunderground v.1.15,2013-05-12 00:50:00,
2013-05-11 18:00:00,78.6,60.6,29.94,SSW,209,4.0,4.0,54,0.00,,,0.00,0,Wunderground v.1.15,2013-05-12 01:00:00,
2013-05-11 18:05:00,78.5,61.0,29.93,West,281,5.0,5.0,55,0.00,,,0.00,0,Wunderground v.1.15,2013-05-12 01:05:00,
2013-05-11 18:10:00,78.3,60.8,29.94,WSW,254,10.0,10.0,55,0.00,,,0.00,0,Wunderground v.1.15,2013-05-12 01:10:00,
2013-05-11 18:20:00,78.0,61.0,29.93,ENE,69,5.0,5.0,56,0.00,,,0.00,0,Wunderground v.1.15,2013-05-12 01:20:00,
2013-05-11 18:30:00,77.7,60.8,29.93,West,264,7.0,7.0,56,0.00,,,0.00,0,Wunderground v.1.15,2013-05-12 01:30:00,
2013-05-11 18:40:00,77.2,60.3,29.93,South,175,2.0,4.0,56,0.00,,,0.00,0,Wunderground v.1.15,2013-05-12 01:40:00,
2013-05-11 18:50:00,77.3,60.9,29.93,SW,228,5.0,5.0,57,0.00,,,0.00,0,Wunderground v.1.15,2013-05-12 01:50:00,
2013-05-11 19:00:00,77.2,60.8,29.93,WSW,253,5.0,5.0,57,0.00,,,0.00,0,Wunderground v.1.15,2013-05-12 02:00:00,
2013-05-11 19:10:00,77.1,60.7,29.93,WNW,292,3.0,4.0,57,0.00,,,0.00,0,Wunderground v.1.15,2013-05-12 02:10:00,
2013-05-11 19:20:00,77.0,60.6,29.93,NNW,328,5.0,5.0,57,0.00,,,0.00,0,Wunderground v.1.15,2013-05-12 02:20:00,
2013-05-11 19:30:00,76.6,60.2,29.93,NNW,344,2.0,4.0,57,0.00,,,0.00,0,Wunderground v.1.15,2013-05-12 02:30:00,
2013-05-11 19:40:00,76.3,59.9,29.93,NNW,344,0.0,4.0,57,0.00,,,0.00,0,Wunderground v.1.15,2013-05-12 02:40:00,
2013-05-11 19:50:00,75.8,60.4,29.93,NNW,344,0.0,4.0,59,0.00,,,0.00,0,Wunderground v.1.15,2013-05-12 02:50:00,
2013-05-11 20:00:00,75.0,60.2,29.93,WSW,248,4.0,4.0,60,0.00,,,0.00,0,Wunderground v.1.15,2013-05-12 03:00:00,
2013-05-11 20:05:00,74.5,60.2,29.93,NW,324,3.0,4.0,61,0.00,,,0.00,0,Wunderground v.1.15,2013-05-12 03:05:00,
2013-05-11 20:15:00,74.2,59.9,29.93,West,264,5.0,5.0,61,0.00,,,0.00,0,Wunderground v.1.15,2013-05-12 03:15:00,
2013-05-11 20:20:00,73.9,60.1,29.93,SW,228,1.0,4.0,62,0.00,,,0.00,0,Wunderground v.1.15,2013-05-12 03:20:00,
2013-05-11 20:30:00,73.4,60.5,29.93,West,269,2.0,4.0,64,0.00,,,0.00,0,Wunderground v.1.15,2013-05-12 03:30:00,
2013-05-11 20:40:00,73.3,60.8,29.93,North,5,3.0,4.0,65,0.00,,,0.00,0,Wunderground v.1.15,2013-05-12 03:40:00,
2013-05-11 20:50:00,73.4,60.0,29.93,North,352,6.0,6.0,63,0.00,,,0.00,0,Wunderground v.1.15,2013-05-12 03:50:00,
2013-05-11 21:00:00,73.1,59.8,29.94,NNW,344,1.0,4.0,63,0.00,,,0.00,0,Wunderground v.1.15,2013-05-12 04:00:00,
2013-05-11 21:05:00,72.8,59.9,29.94,NNW,341,6.0,6.0,64,0.00,,,0.00,0,Wunderground v.1.15,2013-05-12 04:05:00,
2013-05-11 21:10:00,72.7,59.8,29.94,North,359,2.0,4.0,64,0.00,,,0.00,0,Wunderground v.1.15,2013-05-12 04:10:00,
2013-05-11 21:15:00,72.4,59.5,29.94,NNW,330,6.0,6.0,64,0.00,,,0.00,0,Wunderground v.1.15,2013-05-12 04:15:00,
2013-05-11 21:20:00,72.2,59.8,29.94,North,354,3.0,4.0,65,0.00,,,0.00,0,Wunderground v.1.15,2013-05-12 04:20:00,
2013-05-11 21:25:00,72.0,59.6,29.94,NW,320,4.0,4.0,65,0.00,,,0.00,0,Wunderground v.1.15,2013-05-12 04:25:00,
2013-05-11 21:30:00,71.7,59.3,29.94,WNW,299,4.0,4.0,65,0.00,,,0.00,0,Wunderground v.1.15,2013-05-12 04:30:00,
2013-05-11 21:35:00,71.4,59.4,29.94,NNW,331,4.0,4.0,66,0.00,,,0.00,0,Wunderground v.1.15,2013-05-12 04:35:00,
2013-05-11 21:40:00,71.2,59.3,29.94,NNW,342,0.0,4.0,66,0.00,,,0.00,0,Wunderground v.1.15,2013-05-12 04:40:00,
2013-05-11 21:50:00,70.9,59.4,29.94,North,351,2.0,4.0,67,0.00,,,0.00,0,Wunderground v.1.15,2013-05-12 04:50:00,
2013-05-11 22:00:00,70.2,59.1,29.95,WNW,297,1.0,4.0,68,0.00,,,0.00,0,Wunderground v.1.15,2013-05-12 05:00:00,
2013-05-11 22:05:00,70.1,59.0,29.95,WNW,283,2.0,4.0,68,0.00,,,0.00,0,Wunderground v.1.15,2013-05-12 05:05:00,
2013-05-11 22:15:00,70.1,59.0,29.95,WSW,256,4.0,4.0,68,0.00,,,0.00,0,Wunderground v.1.15,2013-05-12 05:15:00,
2013-05-11 22:20:00,70.1,59.5,29.95,WSW,247,3.0,4.0,69,0.00,,,0.00,0,Wunderground v.1.15,2013-05-12 05:20:00,
2013-05-11 22:30:00,70.1,59.5,29.95,West,266,8.0,8.0,69,0.00,,,0.00,0,Wunderground v.1.15,2013-05-12 05:30:00,
2013-05-11 22:40:00,70.0,59.4,29.95,WSW,254,7.0,7.0,69,0.00,,,0.00,0,Wunderground v.1.15,2013-05-12 05:40:00,
2013-05-11 22:50:00,69.8,59.2,29.95,WSW,255,4.0,4.0,69,0.00,,,0.00,0,Wunderground v.1.15,2013-05-12 05:50:00,
2013-05-11 23:00:00,69.6,59.0,29.95,West,263,6.0,6.0,69,0.00,,,0.00,0,Wunderground v.1.15,2013-05-12 06:00:00,
2013-05-11 23:05:00,69.6,59.0,29.96,WSW,255,5.0,6.0,69,0.00,,,0.00,0,Wunderground v.1.15,2013-05-12 06:05:00,
2013-05-11 23:15:00,69.3,59.1,29.96,WSW,248,4.0,4.0,70,0.00,,,0.00,0,Wunderground v.1.15,2013-05-12 06:15:00,
2013-05-11 23:20:00,69.1,58.5,29.96,WNW,283,5.0,5.0,69,0.00,,,0.00,0,Wunderground v.1.15,2013-05-12 06:20:00,
2013-05-11 23:30:00,68.8,58.6,29.96,West,263,7.0,7.0,70,0.00,,,0.00,0,Wunderground v.1.15,2013-05-12 06:30:00,
2013-05-11 23:40:00,68.6,58.4,29.96,WSW,253,9.0,9.0,70,0.00,,,0.00,0,Wunderground v.1.15,2013-05-12 06:40:00,
2013-05-11 23:50:00,68.4,58.2,29.96,West,260,0.0,4.0,70,0.00,,,0.00,0,Wunderground v.1.15,2013-05-12 06:50:00,